createdAt,value
2018-02-19T06:53:03.140Z,55.12
2018-02-19T06:54:03.557Z,55.38
2018-02-19T06:56:49.537Z,48.41
2018-02-19T06:57:48.159Z,49.12
2018-02-19T07:00:32.613Z,50.42
2018-02-19T07:01:32.553Z,54.27
2018-02-19T07:04:17.343Z,49.78
2018-02-19T07:05:16.854Z,49.27
2018-02-19T07:08:00.699Z,51.26
2018-02-19T07:09:00.680Z,50.49
2018-02-19T07:11:44.639Z,48.86
2018-02-19T07:12:44.573Z,48.33
2018-02-19T07:15:28.984Z,43.74
2018-02-19T07:16:28.887Z,47.27
2018-02-19T07:19:12.715Z,47.87
2018-02-19T07:20:12.743Z,48.39
2018-02-19T07:22:57.092Z,47.15
2018-02-19T07:23:56.636Z,44.52
2018-02-19T07:26:40.449Z,42.64
2018-02-19T07:27:40.403Z,44.48
2018-02-19T07:30:24.547Z,45.39
2018-02-19T07:31:24.317Z,42.79
2018-02-19T07:34:09.125Z,43.16
2018-02-19T07:35:09.082Z,44.60
2018-02-19T07:37:53.077Z,44.64
2018-02-19T07:38:53.461Z,46.39
2018-02-19T07:41:37.796Z,43.70
2018-02-19T07:42:37.403Z,40.42
2018-02-19T07:45:21.853Z,44.31
2018-02-19T07:46:22.143Z,41.45
2018-02-19T07:49:06.212Z,42.69
2018-02-19T07:50:07.183Z,46.13
2018-02-19T07:52:49.963Z,40.45
2018-02-19T07:53:49.892Z,39.66
2018-02-19T07:56:33.869Z,38.22
2018-02-19T07:57:33.846Z,38.26
2018-02-19T08:00:18.288Z,40.91
2018-02-19T08:01:18.535Z,39.16
2018-02-19T08:04:03.066Z,37.66
2018-02-19T08:05:03.133Z,35.65
2018-02-19T08:07:47.385Z,36.58
2018-02-19T08:08:47.933Z,37.04
2018-02-19T08:11:30.390Z,37.61
2018-02-19T08:12:30.411Z,42.05
2018-02-19T08:15:16.200Z,37.94
2018-02-19T08:16:16.074Z,39.71
2018-02-19T08:18:59.110Z,39.80
2018-02-19T08:19:59.019Z,41.45
2018-02-19T08:20:59.034Z,39.66
2018-02-19T08:21:59.405Z,39.68
2018-02-19T08:22:59.967Z,37.60
2018-02-19T08:23:59.811Z,37.35
2018-02-19T08:24:59.413Z,36.38
2018-02-19T08:26:00.837Z,35.32
2018-02-19T08:26:58.986Z,34.65
2018-02-19T08:27:58.940Z,33.65
2018-02-19T08:28:58.933Z,34.10
2018-02-19T08:29:58.934Z,36.04
2018-02-19T08:30:58.934Z,37.14
2018-02-19T08:31:59.125Z,44.64
2018-02-19T08:32:58.894Z,48.52
2018-02-19T08:33:58.886Z,45.68
2018-02-19T08:34:58.882Z,39.76
2018-02-19T08:35:58.879Z,42.33
2018-02-19T08:36:58.856Z,44.30
2018-02-19T08:37:58.850Z,41.02
2018-02-19T08:38:58.840Z,41.09
2018-02-19T08:39:58.833Z,36.26
2018-02-19T08:40:58.827Z,40.41
2018-02-19T08:41:58.822Z,48.09
2018-02-19T08:42:58.817Z,39.96
2018-02-19T08:43:58.812Z,39.68
2018-02-19T08:44:58.802Z,47.44
2018-02-19T08:45:58.784Z,43.46
2018-02-19T08:46:58.773Z,48.28
2018-02-19T08:47:58.768Z,49.32
2018-02-19T08:48:58.803Z,40.24
2018-02-19T08:49:58.745Z,39.55
2018-02-19T08:50:58.786Z,36.50
2018-02-19T08:51:58.732Z,42.64
2018-02-19T08:52:58.713Z,48.91
2018-02-19T08:53:58.709Z,53.05
2018-02-19T08:54:58.702Z,57.39
2018-02-19T08:55:58.693Z,52.80
2018-02-19T08:56:58.688Z,49.05
2018-02-19T08:57:58.676Z,37.87
2018-02-19T08:58:58.665Z,39.50
2018-02-19T08:59:58.661Z,36.93
2018-02-19T09:00:58.650Z,34.82
2018-02-19T09:01:58.647Z,34.46
2018-02-19T09:02:58.634Z,36.96
2018-02-19T09:03:58.639Z,38.40
2018-02-19T09:04:58.618Z,37.39
2018-02-19T09:05:58.601Z,37.26
2018-02-19T09:06:58.604Z,39.01
2018-02-19T09:07:58.586Z,37.20
2018-02-19T09:08:58.583Z,37.91
2018-02-19T09:09:58.589Z,38.56
2018-02-19T09:10:58.572Z,37.74
2018-02-19T09:11:58.563Z,38.79
2018-02-19T09:12:58.551Z,33.59
2018-02-19T09:13:58.567Z,36.28
2018-02-19T09:14:58.536Z,36.84
2018-02-19T09:15:58.520Z,38.25
2018-02-19T09:16:58.538Z,39.14
2018-02-19T09:17:58.506Z,40.82
2018-02-19T09:18:58.497Z,40.18
2018-02-19T09:19:58.483Z,40.55
2018-02-19T09:20:58.478Z,41.18
2018-02-19T09:21:58.477Z,39.01
2018-02-19T09:22:58.468Z,40.86
2018-02-19T09:23:58.459Z,40.60
2018-02-19T09:24:58.448Z,34.32
2018-02-19T09:25:58.447Z,37.70
2018-02-19T09:26:58.431Z,40.10
2018-02-19T09:27:58.432Z,37.47
2018-02-19T09:28:58.415Z,36.60
2018-02-19T09:29:58.421Z,38.69
2018-02-19T09:30:58.408Z,35.74
2018-02-19T09:31:58.382Z,36.74
2018-02-19T09:32:58.379Z,34.30
2018-02-19T09:33:58.375Z,34.54
2018-02-19T09:34:58.365Z,39.94
2018-02-19T09:35:58.361Z,38.58
2018-02-19T09:36:58.358Z,36.30
2018-02-19T09:37:58.345Z,42.64
2018-02-19T09:38:58.338Z,56.06
2018-02-19T09:39:58.332Z,53.44
2018-02-19T09:40:58.334Z,41.46
2018-02-19T09:41:58.327Z,37.97
2018-02-19T09:42:58.300Z,34.76
2018-02-19T09:43:58.323Z,35.08
2018-02-19T09:44:58.288Z,36.50
2018-02-19T09:45:58.273Z,35.22
2018-02-19T09:46:58.273Z,35.64
2018-02-19T09:47:58.262Z,34.94
2018-02-19T09:48:58.257Z,35.47
2018-02-19T09:49:58.248Z,36.44
2018-02-19T09:50:58.256Z,38.31
2018-02-19T09:51:58.245Z,35.20
2018-02-19T09:52:58.241Z,37.53
2018-02-19T09:53:58.220Z,36.61
2018-02-19T09:54:58.215Z,36.38
2018-02-19T09:55:58.213Z,34.50
2018-02-19T09:56:58.216Z,35.08
2018-02-19T09:57:58.197Z,32.99
2018-02-19T09:58:58.204Z,35.01
2018-02-19T09:59:58.183Z,35.00
2018-02-19T10:00:58.168Z,33.29
2018-02-19T10:01:58.156Z,33.40
2018-02-19T10:02:58.146Z,37.16
2018-02-19T10:03:58.190Z,36.75
2018-02-19T10:04:58.130Z,35.34
2018-02-19T10:05:58.139Z,34.98
2018-02-19T10:06:58.154Z,37.53
2018-02-19T10:07:58.113Z,36.38
2018-02-19T10:08:58.108Z,36.96
2018-02-19T10:09:58.151Z,35.58
2018-02-19T10:10:58.092Z,35.36
2018-02-19T10:11:58.089Z,36.51
2018-02-19T10:12:58.090Z,37.59
2018-02-19T10:13:58.067Z,37.80
2018-02-19T10:14:58.063Z,35.72
2018-02-19T10:15:58.057Z,37.14
2018-02-19T10:16:58.049Z,37.00
2018-02-19T10:17:58.068Z,34.82
2018-02-19T10:18:58.038Z,34.38
2018-02-19T10:19:58.021Z,32.38
2018-02-19T10:20:58.013Z,34.10
2018-02-19T10:21:58.000Z,34.62
2018-02-19T10:22:58.006Z,33.86
2018-02-19T10:23:57.995Z,33.63
2018-02-19T10:24:57.985Z,36.94
2018-02-19T10:25:57.975Z,34.05
2018-02-19T10:26:57.985Z,32.06
2018-02-19T10:27:57.981Z,36.40
2018-02-19T10:28:57.967Z,36.43
2018-02-19T10:29:57.957Z,37.76
2018-02-19T10:30:57.952Z,36.38
2018-02-19T10:31:57.953Z,38.28
2018-02-19T10:32:57.933Z,37.13
2018-02-19T10:33:57.929Z,35.25
2018-02-19T10:34:57.916Z,34.97
2018-02-19T10:35:57.913Z,37.70
2018-02-19T10:36:57.894Z,38.02
2018-02-19T10:37:57.894Z,36.25
2018-02-19T10:38:57.879Z,35.27
2018-02-19T10:39:57.874Z,35.06
2018-02-19T10:40:57.886Z,35.84
2018-02-19T10:41:57.886Z,36.82
2018-02-19T10:42:57.864Z,37.25
2018-02-19T10:43:57.853Z,35.45
2018-02-19T10:44:57.847Z,34.18
2018-02-19T10:45:57.848Z,33.21
2018-02-19T10:46:57.836Z,35.96
2018-02-19T10:47:57.850Z,35.05
2018-02-19T10:48:57.819Z,39.49
2018-02-19T10:49:57.810Z,35.72
2018-02-19T10:50:57.807Z,34.18
2018-02-19T10:51:57.794Z,33.56
2018-02-19T10:52:57.787Z,35.63
2018-02-19T10:53:57.781Z,35.17
2018-02-19T10:54:57.784Z,33.86
2018-02-19T10:55:57.784Z,34.22
2018-02-19T10:56:57.765Z,37.08
2018-02-19T10:57:57.759Z,35.64
2018-02-19T10:58:57.742Z,37.64
2018-02-19T10:59:57.741Z,35.17
2018-02-19T11:00:57.752Z,41.51
2018-02-19T11:01:57.732Z,39.46
2018-02-19T11:02:57.737Z,35.71
2018-02-19T11:03:57.724Z,35.58
2018-02-19T11:04:57.735Z,37.34
2018-02-19T11:05:57.706Z,35.48
2018-02-19T11:06:57.695Z,37.66
2018-02-19T11:07:57.687Z,35.21
2018-02-19T11:08:57.678Z,34.48
2018-02-19T11:09:57.955Z,35.47
2018-02-19T11:10:57.663Z,34.87
2018-02-19T11:11:57.658Z,37.73
2018-02-19T11:12:57.687Z,37.12
2018-02-19T11:13:57.649Z,37.66
2018-02-19T11:14:57.639Z,34.56
2018-02-19T11:15:57.639Z,34.45
2018-02-19T11:16:57.631Z,33.73
2018-02-19T11:17:57.609Z,34.58
2018-02-19T11:18:57.601Z,35.49
2018-02-19T11:19:57.599Z,35.42
2018-02-19T11:20:57.601Z,36.71
2018-02-19T11:21:57.630Z,35.38
2018-02-19T11:22:57.581Z,37.29
2018-02-19T11:23:57.599Z,36.31
2018-02-19T11:24:57.568Z,34.86
2018-02-19T11:25:57.559Z,36.05
2018-02-19T11:26:57.558Z,34.81
2018-02-19T11:27:57.567Z,35.44
2018-02-19T11:28:57.545Z,32.84
2018-02-19T11:29:57.540Z,32.57
2018-02-19T11:30:57.535Z,32.50
2018-02-19T11:31:57.552Z,36.22
2018-02-19T11:32:57.525Z,34.73
2018-02-19T11:33:57.518Z,37.27
2018-02-19T11:34:57.505Z,36.73
2018-02-19T11:35:57.505Z,34.13
2018-02-19T11:36:57.487Z,32.04
2018-02-19T11:37:57.491Z,34.78
2018-02-19T11:38:57.500Z,34.08
2018-02-19T11:39:57.468Z,33.08
2018-02-19T11:40:57.468Z,33.69
2018-02-19T11:41:57.462Z,33.73
2018-02-19T11:42:57.448Z,33.81
2018-02-19T11:43:57.438Z,32.67
2018-02-19T11:44:57.441Z,35.28
2018-02-19T11:45:57.444Z,34.92
2018-02-19T11:46:57.414Z,33.14
2018-02-19T11:47:57.456Z,33.36
2018-02-19T11:48:58.262Z,33.34
2018-02-19T11:49:57.453Z,31.42
2018-02-19T11:50:57.390Z,29.77
2018-02-19T11:51:57.380Z,30.70
2018-02-19T11:52:57.539Z,28.35
2018-02-19T11:53:57.489Z,31.18
2018-02-19T11:54:57.352Z,30.54
2018-02-19T11:55:57.397Z,31.35
2018-02-19T11:56:57.335Z,28.68
2018-02-19T11:57:57.327Z,30.01
2018-02-19T11:58:57.328Z,30.13
2018-02-19T11:59:57.369Z,32.38
2018-02-19T12:00:57.311Z,32.83
2018-02-19T12:01:57.304Z,33.55
2018-02-19T12:02:57.300Z,33.23
2018-02-19T12:03:57.294Z,32.98
2018-02-19T12:04:57.289Z,32.52
2018-02-19T12:05:57.272Z,32.49
2018-02-19T12:06:57.266Z,34.10
2018-02-19T12:07:57.260Z,35.30
2018-02-19T12:08:57.267Z,33.57
2018-02-19T12:09:57.313Z,32.66
2018-02-19T12:10:57.241Z,33.62
2018-02-19T12:11:57.248Z,33.83
2018-02-19T12:12:57.228Z,35.18
2018-02-19T12:13:57.234Z,35.97
2018-02-19T12:14:57.236Z,37.52
2018-02-19T12:15:57.207Z,35.00
2018-02-19T12:16:57.212Z,38.66
2018-02-19T12:17:57.203Z,35.01
2018-02-19T12:18:57.186Z,34.52
2018-02-19T12:19:57.177Z,33.61
2018-02-19T12:20:57.179Z,32.54
2018-02-19T12:21:57.165Z,34.06
2018-02-19T12:22:57.174Z,35.46
2018-02-19T12:23:57.159Z,35.86
2018-02-19T12:24:57.155Z,36.05
2018-02-19T12:25:57.173Z,36.83
2018-02-19T12:26:57.131Z,35.62
2018-02-19T12:27:57.114Z,37.17
2018-02-19T12:28:57.120Z,35.84
2018-02-19T12:29:57.114Z,35.22
2018-02-19T12:30:57.106Z,36.61
2018-02-19T12:31:57.109Z,35.82
2018-02-19T12:32:57.083Z,35.51
2018-02-19T12:33:57.086Z,35.36
2018-02-19T12:34:57.080Z,36.60
2018-02-19T12:35:57.062Z,35.48
2018-02-19T12:36:57.062Z,35.35
2018-02-19T12:37:57.046Z,35.83
2018-02-19T12:38:57.053Z,34.02
2018-02-19T12:39:57.038Z,34.68
2018-02-19T12:40:57.029Z,35.38
2018-02-19T12:41:57.040Z,35.78
2018-02-19T12:42:57.018Z,37.35
2018-02-19T12:43:57.011Z,38.81
2018-02-19T12:44:56.999Z,37.11
2018-02-19T12:45:56.989Z,34.49
2018-02-19T12:46:56.984Z,34.22
2018-02-19T12:47:56.977Z,35.62
2018-02-19T12:48:56.977Z,37.52
2018-02-19T12:49:56.976Z,35.73
2018-02-19T12:50:56.976Z,37.96
2018-02-19T12:51:56.960Z,40.69
2018-02-19T12:52:56.937Z,37.64
2018-02-19T12:53:56.942Z,41.41
2018-02-19T12:54:56.950Z,39.87
2018-02-19T12:55:56.927Z,39.42
2018-02-19T12:56:56.922Z,36.46
2018-02-19T12:57:56.904Z,35.44
2018-02-19T12:58:56.907Z,37.45
2018-02-19T12:59:56.899Z,39.21
2018-02-19T13:00:56.883Z,43.18
2018-02-19T13:01:56.871Z,41.08
2018-02-19T13:02:56.925Z,40.66
2018-02-19T13:03:56.855Z,36.11
2018-02-19T13:04:56.863Z,35.24
2018-02-19T13:05:56.852Z,36.88
2018-02-19T13:06:56.851Z,37.38
2018-02-19T13:07:56.843Z,36.53
2018-02-19T13:08:56.853Z,39.14
2018-02-19T13:09:56.820Z,40.26
2018-02-19T13:10:56.817Z,37.74
2018-02-19T13:11:56.808Z,35.67
2018-02-19T13:12:56.802Z,35.12
2018-02-19T13:13:56.780Z,36.34
2018-02-19T13:14:56.771Z,40.65
2018-02-19T13:15:56.774Z,35.59
2018-02-19T13:16:56.768Z,44.14
2018-02-19T13:17:56.757Z,42.61
2018-02-19T13:18:56.750Z,39.04
2018-02-19T13:19:56.751Z,38.09
2018-02-19T13:20:56.735Z,41.36
2018-02-19T13:21:56.731Z,38.08
2018-02-19T13:22:56.719Z,35.26
2018-02-19T13:23:56.716Z,35.86
2018-02-19T13:24:56.716Z,33.64
2018-02-19T13:25:56.693Z,36.94
2018-02-19T13:26:56.694Z,35.87
2018-02-19T13:27:56.685Z,37.90
2018-02-19T13:28:56.675Z,40.33
2018-02-19T13:29:56.678Z,38.32
2018-02-19T13:30:56.665Z,38.54
2018-02-19T13:31:56.659Z,39.98
2018-02-19T13:32:56.649Z,38.41
2018-02-19T13:33:56.641Z,38.30
2018-02-19T13:34:56.635Z,37.49
2018-02-19T13:35:56.626Z,38.03
2018-02-19T13:36:56.618Z,36.85
2018-02-19T13:37:56.609Z,55.84
2018-02-19T13:38:56.601Z,59.53
2018-02-19T13:39:56.594Z,44.98
2018-02-19T13:40:56.589Z,42.06
2018-02-19T13:41:56.579Z,46.31
2018-02-19T13:42:56.574Z,49.18
2018-02-19T13:43:56.564Z,41.56
2018-02-19T13:45:04.312Z,42.11
2018-02-19T13:47:40.961Z,37.09
2018-02-19T13:48:48.671Z,38.65
2018-02-19T13:51:32.034Z,38.12
2018-02-19T13:52:31.941Z,36.08
2018-02-19T13:55:11.200Z,37.06
2018-02-19T13:56:08.602Z,40.46
2018-02-19T13:58:52.982Z,35.08
2018-02-19T13:59:52.948Z,34.89
2018-02-19T14:02:37.329Z,37.55
2018-02-19T14:03:37.300Z,33.60
2018-02-19T14:06:21.680Z,33.24
2018-02-19T14:07:21.635Z,33.74
2018-02-19T14:10:06.030Z,34.68
2018-02-19T14:11:05.991Z,32.38
2018-02-19T14:13:49.381Z,32.87
2018-02-19T14:14:49.353Z,32.94
2018-02-19T14:17:33.740Z,34.97
2018-02-19T14:18:33.714Z,36.64
2018-02-19T14:21:18.106Z,34.50
2018-02-19T14:22:18.064Z,33.34
2018-02-19T14:25:02.456Z,34.96
2018-02-19T14:26:02.412Z,34.22
2018-02-19T14:28:45.807Z,35.53
2018-02-19T14:29:45.777Z,35.62
2018-02-19T14:32:30.223Z,34.58
2018-02-19T14:33:30.120Z,35.12
2018-02-19T14:36:13.528Z,33.60
2018-02-19T14:37:13.508Z,35.06
2018-02-19T14:39:57.927Z,33.76
2018-02-19T14:40:57.865Z,33.77
2018-02-19T14:43:41.276Z,34.57
2018-02-19T14:44:41.216Z,36.25
2018-02-19T14:47:25.628Z,35.71
2018-02-19T14:48:25.550Z,35.85
2018-02-19T14:51:09.962Z,33.62
2018-02-19T14:52:09.904Z,34.95
2018-02-19T14:54:54.306Z,34.80
2018-02-19T14:55:54.264Z,34.03
2018-02-19T14:58:38.656Z,33.43
2018-02-19T14:59:39.194Z,34.28
2018-02-19T15:02:21.987Z,32.52
2018-02-19T15:03:21.964Z,31.94
2018-02-19T15:06:06.341Z,34.38
2018-02-19T15:07:06.322Z,33.81
2018-02-19T15:09:50.756Z,32.60
2018-02-19T15:10:50.681Z,32.90
2018-02-19T15:13:36.024Z,34.13
2018-02-19T15:14:36.010Z,34.90
2018-02-19T15:17:20.426Z,34.11
2018-02-19T15:18:20.350Z,37.58
2018-02-19T15:21:04.802Z,35.33
2018-02-19T15:22:04.697Z,34.86
2018-02-19T15:24:48.114Z,37.54
2018-02-19T15:25:48.052Z,37.12
2018-02-19T15:28:32.454Z,33.85
2018-02-19T15:29:32.405Z,35.18
2018-02-19T15:32:16.784Z,34.34
2018-02-19T15:33:16.754Z,33.20
2018-02-19T15:36:01.135Z,34.72
2018-02-19T15:37:01.691Z,32.15
2018-02-19T15:39:44.611Z,31.97
2018-02-19T15:40:44.569Z,33.13
2018-02-19T15:43:27.986Z,32.86
2018-02-19T15:44:30.487Z,34.78
2018-02-19T15:47:12.343Z,37.03
2018-02-19T15:48:12.269Z,33.14
2018-02-19T15:50:55.698Z,32.65
2018-02-19T15:51:55.641Z,33.18
2018-02-19T15:54:40.112Z,32.69
2018-02-19T15:55:40.002Z,34.52
2018-02-19T15:58:24.383Z,34.91
2018-02-19T15:59:24.355Z,33.94
2018-02-19T16:02:07.777Z,36.20
2018-02-19T16:03:07.738Z,33.41
2018-02-19T16:05:53.146Z,35.37
2018-02-19T16:06:53.047Z,34.47
2018-02-19T16:09:37.663Z,36.74
2018-02-19T16:10:37.631Z,36.93
2018-02-19T16:11:37.605Z,35.68
2018-02-19T16:12:37.602Z,33.28
2018-02-19T16:13:37.643Z,32.86
2018-02-19T16:14:37.578Z,34.20
2018-02-19T16:15:37.565Z,34.42
2018-02-19T16:16:37.576Z,34.92
2018-02-19T16:17:37.558Z,35.27
2018-02-19T16:18:37.534Z,34.96
2018-02-19T16:19:37.537Z,36.33
2018-02-19T16:20:37.521Z,33.08
2018-02-19T16:21:37.514Z,37.72
2018-02-19T16:22:37.520Z,36.03
2018-02-19T16:23:37.535Z,33.54
2018-02-19T16:24:37.504Z,36.46
2018-02-19T16:25:37.490Z,35.99
2018-02-19T16:26:37.505Z,39.08
2018-02-19T16:27:37.471Z,37.12
2018-02-19T16:28:37.484Z,35.10
2018-02-19T16:29:37.455Z,36.28
2018-02-19T16:30:37.456Z,34.88
2018-02-19T16:31:37.444Z,35.97
2018-02-19T16:32:37.443Z,33.64
2018-02-19T16:33:37.432Z,36.06
2018-02-19T16:34:37.425Z,37.30
2018-02-19T16:35:37.411Z,37.06
2018-02-19T16:36:37.411Z,36.18
2018-02-19T16:37:37.403Z,37.22
2018-02-19T16:38:37.393Z,35.07
2018-02-19T16:39:37.381Z,35.11
2018-02-19T16:40:37.369Z,37.63
2018-02-19T16:41:37.382Z,37.93
2018-02-19T16:42:37.356Z,39.95
2018-02-19T16:43:37.348Z,39.28
2018-02-19T16:44:37.339Z,39.44
2018-02-19T16:45:37.334Z,36.88
2018-02-19T16:46:37.325Z,36.70
2018-02-19T16:47:37.312Z,38.98
2018-02-19T16:48:37.306Z,37.04
2018-02-19T16:49:37.296Z,36.46
2018-02-19T16:50:37.288Z,37.01
2018-02-19T16:51:37.278Z,36.18
2018-02-19T16:52:37.273Z,37.98
2018-02-19T16:53:37.267Z,35.19
2018-02-19T16:54:37.261Z,35.36
2018-02-19T16:55:37.252Z,34.18
2018-02-19T16:56:37.246Z,33.66
2018-02-19T16:57:37.230Z,34.42
2018-02-19T16:58:37.228Z,35.35
2018-02-19T16:59:37.223Z,34.86
2018-02-19T17:00:37.214Z,37.48
2018-02-19T17:01:37.196Z,34.00
2018-02-19T17:02:37.187Z,35.10
2018-02-19T17:03:37.180Z,35.14
2018-02-19T17:04:37.173Z,36.04
2018-02-19T17:05:37.164Z,33.03
2018-02-19T17:06:37.158Z,32.13
2018-02-19T17:07:37.159Z,30.56
2018-02-19T17:08:37.148Z,34.52
2018-02-19T17:09:37.137Z,34.04
2018-02-19T17:10:37.135Z,32.31
2018-02-19T17:11:37.127Z,31.92
2018-02-19T17:12:37.117Z,32.38
2018-02-19T17:13:37.108Z,34.04
2018-02-19T17:14:37.090Z,33.43
2018-02-19T17:15:37.086Z,32.75
2018-02-19T17:16:37.071Z,33.26
2018-02-19T17:17:37.066Z,32.18
2018-02-19T17:18:37.064Z,32.97
2018-02-19T17:19:37.057Z,32.26
2018-02-19T17:20:37.039Z,31.70
2018-02-19T17:21:37.031Z,31.37
2018-02-19T17:22:37.026Z,32.20
2018-02-19T17:23:37.015Z,33.73
2018-02-19T17:24:37.009Z,31.59
2018-02-19T17:25:37.003Z,30.71
2018-02-19T17:26:36.984Z,32.30
2018-02-19T17:27:36.983Z,34.01
2018-02-19T17:28:36.977Z,33.18
2018-02-19T17:29:36.965Z,32.04
2018-02-19T17:30:36.957Z,30.02
2018-02-19T17:31:36.940Z,33.86
2018-02-19T17:32:36.941Z,35.79
2018-02-19T17:33:36.941Z,34.35
2018-02-19T17:34:36.915Z,31.56
2018-02-19T17:35:36.912Z,34.71
2018-02-19T17:36:36.921Z,31.67
2018-02-19T17:37:36.891Z,32.43
2018-02-19T17:38:36.890Z,34.57
2018-02-19T17:39:36.878Z,33.12
2018-02-19T17:40:36.865Z,33.10
2018-02-19T17:41:36.864Z,33.40
2018-02-19T17:42:36.852Z,35.05
2018-02-19T17:43:36.843Z,33.69
2018-02-19T17:44:36.848Z,34.03
2018-02-19T17:45:36.824Z,36.33
2018-02-19T17:46:36.833Z,33.18
2018-02-19T17:47:36.820Z,33.70
2018-02-19T17:48:36.795Z,35.95
2018-02-19T17:49:36.791Z,33.09
2018-02-19T17:50:36.798Z,37.12
2018-02-19T17:51:36.785Z,35.63
2018-02-19T17:52:36.783Z,36.02
2018-02-19T17:53:36.772Z,37.43
2018-02-19T17:54:36.749Z,36.99
2018-02-19T17:55:36.730Z,35.42
2018-02-19T17:56:36.765Z,35.79
2018-02-19T17:57:36.741Z,34.99
2018-02-19T17:58:36.716Z,35.06
2018-02-19T17:59:36.708Z,35.66
2018-02-19T18:00:36.704Z,38.20
2018-02-19T18:01:36.685Z,35.17
2018-02-19T18:02:36.684Z,33.84
2018-02-19T18:03:36.673Z,34.96
2018-02-19T18:04:36.661Z,35.38
2018-02-19T18:05:36.670Z,34.98
2018-02-19T18:06:36.650Z,35.72
2018-02-19T18:07:36.644Z,35.69
2018-02-19T18:08:36.635Z,33.62
2018-02-19T18:09:36.619Z,38.10
2018-02-19T18:10:36.608Z,37.17
2018-02-19T18:11:36.601Z,36.20
2018-02-19T18:12:37.607Z,35.61
2018-02-19T18:13:36.728Z,32.78
2018-02-19T18:14:36.704Z,38.22
2018-02-19T18:15:36.581Z,40.01
2018-02-19T18:16:36.569Z,35.08
2018-02-19T18:17:36.564Z,34.25
2018-02-19T18:18:36.559Z,34.36
2018-02-19T18:19:36.530Z,34.79
2018-02-19T18:20:36.536Z,36.28
2018-02-19T18:21:36.517Z,37.00
2018-02-19T18:22:36.502Z,35.83
2018-02-19T18:23:36.502Z,37.26
2018-02-19T18:24:36.494Z,34.84
2018-02-19T18:25:36.493Z,35.79
2018-02-19T18:26:36.481Z,33.65
2018-02-19T18:27:36.457Z,35.10
2018-02-19T18:28:36.450Z,34.24
2018-02-19T18:29:36.433Z,30.99
2018-02-19T18:30:36.438Z,33.56
2018-02-19T18:31:36.430Z,33.72
2018-02-19T18:32:36.414Z,31.87
2018-02-19T18:33:36.419Z,32.16
2018-02-19T18:34:36.396Z,34.44
2018-02-19T18:35:36.386Z,35.26
2018-02-19T18:36:36.383Z,33.40
2018-02-19T18:37:36.380Z,33.17
2018-02-19T18:38:36.365Z,34.17
2018-02-19T18:39:36.354Z,34.12
2018-02-19T18:40:36.337Z,33.78
2018-02-19T18:41:36.357Z,34.97
2018-02-19T18:42:36.327Z,34.16
2018-02-19T18:43:36.316Z,34.07
2018-02-19T18:44:36.309Z,32.40
2018-02-19T18:45:36.292Z,36.76
2018-02-19T18:46:36.284Z,32.64
2018-02-19T18:47:36.289Z,34.78
2018-02-19T18:48:36.263Z,33.34
2018-02-19T18:49:36.260Z,36.58
2018-02-19T18:50:36.255Z,34.27
2018-02-19T18:51:36.241Z,34.32
2018-02-19T18:52:36.232Z,36.31
2018-02-19T18:53:36.229Z,36.21
2018-02-19T18:54:36.233Z,35.22
2018-02-19T18:55:36.205Z,35.49
2018-02-19T18:56:36.209Z,34.44
2018-02-19T18:57:36.193Z,35.80
2018-02-19T18:58:36.175Z,36.92
2018-02-19T18:59:36.180Z,39.12
2018-02-19T19:00:36.155Z,37.56
2018-02-19T19:01:36.178Z,37.00
2018-02-19T19:02:36.167Z,37.47
2018-02-19T19:03:36.129Z,37.20
2018-02-19T19:04:36.152Z,36.28
2018-02-19T19:05:36.120Z,37.84
2018-02-19T19:06:36.107Z,36.36
2018-02-19T19:07:36.094Z,36.43
2018-02-19T19:08:36.094Z,35.93
2018-02-19T19:09:36.088Z,37.34
2018-02-19T19:10:36.071Z,35.24
2018-02-19T19:11:36.100Z,37.25
2018-02-19T19:12:36.049Z,36.10
2018-02-19T19:13:36.042Z,36.64
2018-02-19T19:14:36.028Z,36.41
2018-02-19T19:15:36.045Z,38.91
2018-02-19T19:16:36.019Z,37.44
2018-02-19T19:17:36.001Z,36.68
2018-02-19T19:18:35.993Z,34.96
2018-02-19T19:19:35.990Z,38.95
2018-02-19T19:20:35.983Z,36.73
2018-02-19T19:21:35.976Z,38.00
2018-02-19T19:22:36.027Z,35.05
2018-02-19T19:23:35.977Z,34.64
2018-02-19T19:24:35.950Z,40.04
2018-02-19T19:25:35.926Z,36.89
2018-02-19T19:26:35.944Z,35.53
2018-02-19T19:27:35.911Z,38.71
2018-02-19T19:28:35.897Z,37.50
2018-02-19T19:29:35.894Z,38.92
2018-02-19T19:30:35.914Z,37.80
2018-02-19T19:31:35.874Z,39.17
2018-02-19T19:32:35.892Z,41.07
2018-02-19T19:33:35.862Z,39.82
2018-02-19T19:34:35.854Z,41.77
2018-02-19T19:35:36.335Z,39.98
2018-02-19T19:36:35.851Z,43.15
2018-02-19T19:37:35.819Z,41.51
2018-02-19T19:38:35.814Z,38.75
2018-02-19T19:39:35.813Z,38.47
2018-02-19T19:40:36.041Z,37.51
2018-02-19T19:41:36.151Z,40.02
2018-02-19T19:42:35.781Z,39.59
2018-02-19T19:43:35.763Z,36.56
2018-02-19T19:44:35.793Z,38.22
2018-02-19T19:45:35.791Z,38.82
2018-02-19T19:46:35.749Z,41.86
2018-02-19T19:47:35.730Z,38.84
2018-02-19T19:48:35.719Z,39.19
2018-02-19T19:49:35.822Z,41.76
2018-02-19T19:50:35.714Z,39.23
2018-02-19T19:51:35.691Z,37.64
2018-02-19T19:52:35.688Z,38.04
2018-02-19T19:53:35.682Z,40.78
2018-02-19T19:54:36.076Z,38.14
2018-02-19T19:55:35.758Z,40.54
2018-02-19T19:56:35.646Z,39.10
2018-02-19T19:57:35.635Z,37.40
2018-02-19T19:58:35.640Z,40.94
2018-02-19T19:59:35.614Z,40.34
